createdAt,value
2023-08-07T00:01:55.449Z,17.10
2023-08-07T00:04:22.376Z,17.10
2023-08-07T00:06:49.028Z,17.10
2023-08-07T00:09:15.694Z,17.10
2023-08-07T00:11:42.432Z,17.10
2023-08-07T00:14:09.215Z,17.10
2023-08-07T00:16:36.215Z,17.10
2023-08-07T00:19:04.111Z,17.10
2023-08-07T00:21:30.865Z,17.10
2023-08-07T00:23:57.579Z,17.10
2023-08-07T00:26:24.290Z,17.10
2023-08-07T00:28:51.015Z,17.10
2023-08-07T00:31:17.899Z,17.10
2023-08-07T00:33:44.580Z,17.00
2023-08-07T00:36:11.264Z,17.00
2023-08-07T00:38:37.938Z,17.00
2023-08-07T00:41:04.703Z,17.00
2023-08-07T00:43:31.465Z,17.00
2023-08-07T00:45:58.426Z,16.90
2023-08-07T00:48:25.185Z,16.90
2023-08-07T00:50:52.895Z,17.00
2023-08-07T00:53:19.752Z,16.90
2023-08-07T00:55:47.425Z,16.90
2023-08-07T00:58:14.529Z,18.20
2023-08-07T01:00:43.131Z,17.20
2023-08-07T01:03:11.648Z,16.80
2023-08-07T01:05:38.399Z,16.80
2023-08-07T01:08:05.314Z,16.80
2023-08-07T01:11:11.958Z,16.80
2023-08-07T01:13:41.589Z,16.90
2023-08-07T01:16:19.405Z,16.90
2023-08-07T01:18:47.479Z,16.90
2023-08-07T01:21:21.294Z,16.90
2023-08-07T01:23:48.833Z,16.90
2023-08-07T01:26:17.398Z,16.90
2023-08-07T01:28:51.473Z,16.80
2023-08-07T01:31:23.414Z,16.80
2023-08-07T01:34:09.498Z,16.80
2023-08-07T01:36:36.379Z,16.70
2023-08-07T01:39:04.743Z,16.70
2023-08-07T01:41:31.904Z,16.70
2023-08-07T01:43:58.759Z,16.70
2023-08-07T01:46:25.426Z,16.60
2023-08-07T01:48:52.138Z,16.70
2023-08-07T01:51:18.853Z,16.70
2023-08-07T01:53:45.495Z,16.70
2023-08-07T01:56:12.140Z,16.60
2023-08-07T01:58:38.851Z,16.60
2023-08-07T02:01:05.552Z,16.60
2023-08-07T02:03:32.450Z,16.60
2023-08-07T02:05:59.560Z,16.50
2023-08-07T02:08:26.225Z,16.50
2023-08-07T02:10:52.886Z,15.40
2023-08-07T02:13:19.534Z,16.60
2023-08-07T02:15:46.297Z,16.50
2023-08-07T02:18:12.945Z,16.50
2023-08-07T02:20:39.676Z,16.50
2023-08-07T02:23:06.381Z,16.50
2023-08-07T02:25:33.061Z,16.50
2023-08-07T02:27:59.758Z,16.50
2023-08-07T02:30:26.428Z,16.50
2023-08-07T02:32:53.171Z,16.50
2023-08-07T02:35:20.015Z,16.50
2023-08-07T02:37:46.654Z,16.50
2023-08-07T02:40:16.275Z,16.50
2023-08-07T02:42:43.576Z,16.50
2023-08-07T02:45:10.492Z,16.50
2023-08-07T02:47:37.489Z,16.50
2023-08-07T02:50:04.546Z,16.50
2023-08-07T02:52:31.371Z,16.50
2023-08-07T02:54:58.027Z,16.50
2023-08-07T02:57:24.821Z,16.50
2023-08-07T02:59:51.466Z,16.40
2023-08-07T03:02:18.242Z,16.40
2023-08-07T03:04:45.129Z,16.40
2023-08-07T03:07:11.848Z,16.60
2023-08-07T03:09:38.988Z,16.50
2023-08-07T03:12:06.353Z,17.60
2023-08-07T03:14:33.166Z,16.50
2023-08-07T03:17:00.183Z,16.50
2023-08-07T03:19:26.845Z,15.40
2023-08-07T03:21:53.517Z,16.50
2023-08-07T03:24:20.210Z,16.50
2023-08-07T03:26:48.463Z,16.60
2023-08-07T03:29:15.242Z,16.50
2023-08-07T03:31:41.989Z,16.50
2023-08-07T03:34:08.678Z,16.60
2023-08-07T03:36:35.403Z,16.60
2023-08-07T03:39:02.326Z,16.60
2023-08-07T03:41:29.216Z,16.60
2023-08-07T03:43:55.917Z,16.60
2023-08-07T03:46:22.671Z,16.70
2023-08-07T03:48:49.359Z,16.70
2023-08-07T03:51:17.750Z,16.70
2023-08-07T03:53:44.763Z,16.60
2023-08-07T03:56:11.550Z,16.60
2023-08-07T03:58:38.252Z,16.60
2023-08-07T04:01:04.967Z,16.60
2023-08-07T04:03:31.765Z,16.60
2023-08-07T04:05:58.560Z,16.60
2023-08-07T04:08:25.578Z,16.60
2023-08-07T04:11:18.726Z,16.70
2023-08-07T04:13:45.398Z,16.60
2023-08-07T04:16:12.263Z,16.60
2023-08-07T04:18:38.996Z,16.50
2023-08-07T04:21:05.795Z,16.50
2023-08-07T04:23:32.683Z,16.60
2023-08-07T04:26:00.293Z,16.60
2023-08-07T04:28:29.453Z,16.60
2023-08-07T04:30:56.129Z,16.60
2023-08-07T04:33:22.817Z,16.60
2023-08-07T04:35:49.699Z,16.60
2023-08-07T04:38:17.529Z,16.60
2023-08-07T04:40:48.567Z,16.60
2023-08-07T04:43:16.393Z,16.60
2023-08-07T04:45:43.301Z,16.60
2023-08-07T04:48:09.971Z,16.60
2023-08-07T04:50:36.649Z,16.60
2023-08-07T04:53:03.342Z,16.70
2023-08-07T04:55:30.024Z,16.70
2023-08-07T04:57:57.361Z,16.70
2023-08-07T05:00:24.757Z,16.70
2023-08-07T05:02:52.084Z,16.60
2023-08-07T05:05:22.338Z,16.60
2023-08-07T05:07:49.620Z,16.60
2023-08-07T05:10:16.399Z,16.70
2023-08-07T05:12:43.166Z,16.60
2023-08-07T05:15:10.322Z,16.70
2023-08-07T05:17:37.095Z,16.70
2023-08-07T05:20:04.067Z,16.70
2023-08-07T05:22:30.808Z,16.70
2023-08-07T05:24:57.446Z,16.70
2023-08-07T05:27:24.145Z,16.80
2023-08-07T05:29:50.787Z,16.80
2023-08-07T05:32:17.432Z,16.90
2023-08-07T05:34:44.820Z,16.90
2023-08-07T05:37:11.552Z,16.90
2023-08-07T05:39:38.261Z,16.90
2023-08-07T05:42:05.480Z,16.90
2023-08-07T05:44:32.331Z,16.90
2023-08-07T05:46:59.022Z,16.90
2023-08-07T05:49:26.568Z,17.00
2023-08-07T05:51:54.645Z,17.00
2023-08-07T05:54:21.871Z,17.00
2023-08-07T05:56:48.661Z,17.30
2023-08-07T05:59:16.323Z,17.00
2023-08-07T06:01:43.016Z,17.00
2023-08-07T06:04:10.227Z,16.90
2023-08-07T06:06:37.450Z,16.90
2023-08-07T06:09:04.968Z,16.80
2023-08-07T06:11:32.120Z,16.80
2023-08-07T06:13:59.283Z,16.80
2023-08-07T06:16:26.713Z,16.80
2023-08-07T06:18:53.476Z,16.80
2023-08-07T06:21:21.456Z,16.80
2023-08-07T06:23:49.289Z,16.80
2023-08-07T06:26:16.069Z,16.90
2023-08-07T06:28:43.489Z,16.80
2023-08-07T06:31:11.621Z,16.80
2023-08-07T06:33:38.589Z,16.80
2023-08-07T06:36:05.851Z,16.90
2023-08-07T06:38:32.564Z,16.90
2023-08-07T06:40:59.247Z,16.90
2023-08-07T06:43:25.954Z,17.00
2023-08-07T06:45:57.036Z,17.00
2023-08-07T06:48:24.109Z,17.00
2023-08-07T06:50:51.484Z,17.00
2023-08-07T06:53:18.200Z,17.00
2023-08-07T06:55:45.788Z,17.00
2023-08-07T06:58:12.456Z,17.10
2023-08-07T07:00:39.176Z,17.00
2023-08-07T07:03:07.034Z,17.10
2023-08-07T07:05:34.100Z,17.20
2023-08-07T07:08:01.027Z,17.20
2023-08-07T07:10:27.707Z,17.10
2023-08-07T07:12:54.384Z,17.10
2023-08-07T07:15:21.069Z,15.80
2023-08-07T07:17:48.335Z,17.00
2023-08-07T07:20:15.123Z,17.10
2023-08-07T07:22:41.864Z,17.10
2023-08-07T07:25:09.151Z,17.10
2023-08-07T07:27:35.828Z,17.10
2023-08-07T07:30:02.729Z,17.10
2023-08-07T07:32:29.485Z,17.10
2023-08-07T07:34:56.344Z,17.00
2023-08-07T07:37:23.138Z,16.90
2023-08-07T07:39:49.888Z,16.50
2023-08-07T07:42:16.550Z,16.30
2023-08-07T07:44:43.316Z,16.20
2023-08-07T07:47:12.620Z,16.20
2023-08-07T07:49:40.577Z,16.30
2023-08-07T07:52:07.991Z,16.50
2023-08-07T07:54:36.232Z,16.60
2023-08-07T07:57:02.993Z,16.70
2023-08-07T07:59:29.694Z,16.90
2023-08-07T08:01:56.655Z,17.00
2023-08-07T08:04:24.335Z,16.90
2023-08-07T08:06:51.243Z,17.00
2023-08-07T08:09:17.965Z,17.10
2023-08-07T08:11:44.789Z,17.20
2023-08-07T08:14:11.618Z,17.20
2023-08-07T08:16:38.462Z,17.20
2023-08-07T08:19:05.454Z,17.10
2023-08-07T08:21:32.572Z,17.10
2023-08-07T08:23:59.321Z,16.80
2023-08-07T08:26:26.039Z,16.50
2023-08-07T08:28:52.690Z,16.40
2023-08-07T08:31:19.503Z,16.50
2023-08-07T08:33:46.254Z,16.40
2023-08-07T08:36:12.921Z,16.30
2023-08-07T08:38:39.601Z,16.30
2023-08-07T08:41:10.217Z,16.30
2023-08-07T08:43:38.846Z,16.30
2023-08-07T08:46:06.641Z,16.30
2023-08-07T08:48:37.204Z,16.40
2023-08-07T08:51:05.901Z,16.50
2023-08-07T08:53:34.522Z,16.40
2023-08-07T08:56:02.853Z,16.30
2023-08-07T08:58:29.848Z,16.10
2023-08-07T09:00:56.876Z,16.10
2023-08-07T09:03:25.538Z,16.10
2023-08-07T09:05:55.379Z,16.20
2023-08-07T09:08:24.910Z,16.30
2023-08-07T09:10:52.634Z,16.40
2023-08-07T09:13:25.042Z,16.50
2023-08-07T09:15:52.626Z,16.60
2023-08-07T09:18:22.776Z,15.60
2023-08-07T09:20:49.936Z,16.90
2023-08-07T09:23:20.459Z,17.10
2023-08-07T09:25:47.200Z,17.20
2023-08-07T09:28:14.212Z,17.40
2023-08-07T09:30:45.205Z,17.60
2023-08-07T09:33:12.025Z,17.60
2023-08-07T09:35:40.051Z,17.60
2023-08-07T09:38:08.956Z,17.70
2023-08-07T09:40:36.308Z,17.60
2023-08-07T09:43:03.893Z,17.70
2023-08-07T09:45:32.596Z,17.60
2023-08-07T09:48:09.128Z,17.60
2023-08-07T09:50:35.829Z,17.80
2023-08-07T09:53:02.803Z,17.90
2023-08-07T09:55:29.424Z,18.00
2023-08-07T09:57:56.167Z,18.20
2023-08-07T10:00:22.978Z,18.40
2023-08-07T10:02:51.095Z,18.40
2023-08-07T10:05:18.902Z,18.40
2023-08-07T10:07:46.878Z,18.30
2023-08-07T10:10:13.711Z,18.20
2023-08-07T10:12:40.637Z,18.20
2023-08-07T10:15:08.709Z,18.20
2023-08-07T10:17:35.873Z,18.20
2023-08-07T10:20:05.582Z,18.30
2023-08-07T10:22:34.546Z,18.00
2023-08-07T10:25:03.060Z,18.00
2023-08-07T10:27:34.609Z,17.10
2023-08-07T10:30:05.746Z,17.90
2023-08-07T10:32:33.735Z,17.90
2023-08-07T10:35:05.362Z,18.00
2023-08-07T10:37:46.191Z,18.10
2023-08-07T10:40:14.248Z,18.10
2023-08-07T10:42:58.168Z,18.00
2023-08-07T10:45:25.704Z,17.90
2023-08-07T10:47:58.213Z,17.80
2023-08-07T10:50:35.514Z,17.90
2023-08-07T10:53:04.326Z,18.20
2023-08-07T10:55:47.592Z,18.40
2023-08-07T10:58:29.986Z,18.60
2023-08-07T11:01:27.684Z,18.30
2023-08-07T11:04:03.713Z,18.20
2023-08-07T11:06:32.705Z,18.10
2023-08-07T11:09:00.613Z,18.00
2023-08-07T11:11:31.253Z,17.90
2023-08-07T11:13:57.917Z,18.00
2023-08-07T11:16:24.762Z,18.30
2023-08-07T11:18:51.781Z,18.30
2023-08-07T11:21:19.719Z,18.00
2023-08-07T11:23:47.360Z,17.60
2023-08-07T11:26:14.050Z,17.50
2023-08-07T11:28:40.858Z,17.50
2023-08-07T11:31:07.780Z,17.50
2023-08-07T11:33:34.719Z,17.50
2023-08-07T11:36:01.442Z,17.60
2023-08-07T11:38:33.499Z,17.90
2023-08-07T11:41:04.666Z,17.90
2023-08-07T11:43:32.373Z,18.00
2023-08-07T11:46:01.498Z,17.50
2023-08-07T11:48:29.732Z,18.00
2023-08-07T11:50:57.415Z,17.90
2023-08-07T11:53:25.683Z,17.70
2023-08-07T11:56:01.645Z,17.70
2023-08-07T11:58:38.049Z,17.80
2023-08-07T12:01:15.621Z,17.90
2023-08-07T12:04:09.165Z,17.90
2023-08-07T12:06:36.988Z,17.80
2023-08-07T12:09:04.365Z,17.70
2023-08-07T12:11:31.797Z,18.90
2023-08-07T12:14:01.258Z,17.30
2023-08-07T12:16:32.921Z,16.90
2023-08-07T12:18:59.916Z,16.80
2023-08-07T12:21:27.277Z,18.30
2023-08-07T12:23:56.673Z,16.70
2023-08-07T12:26:23.412Z,16.80
2023-08-07T12:28:50.835Z,16.90
2023-08-07T12:31:19.238Z,17.00
2023-08-07T12:33:46.019Z,17.10
2023-08-07T12:38:44.289Z,17.30
2023-08-07T12:41:44.741Z,17.30
2023-08-07T12:43:57.687Z,17.00
2023-08-07T12:48:53.939Z,16.70
2023-08-07T12:51:20.561Z,16.70
2023-08-07T12:53:48.540Z,16.80
2023-08-07T12:56:15.327Z,16.80
2023-08-07T12:58:42.614Z,16.80
2023-08-07T13:01:10.297Z,16.90
2023-08-07T13:03:37.074Z,16.80
2023-08-07T13:06:06.992Z,16.60
2023-08-07T13:08:34.707Z,16.50
2023-08-07T13:11:04.455Z,16.60
2023-08-07T13:13:32.083Z,16.70
2023-08-07T13:15:58.873Z,16.90
2023-08-07T13:18:25.618Z,17.00
2023-08-07T13:20:52.322Z,17.00
2023-08-07T13:23:19.037Z,17.30
2023-08-07T13:25:45.674Z,17.50
2023-08-07T13:28:12.509Z,17.70
2023-08-07T13:30:39.235Z,17.70
2023-08-07T13:33:05.981Z,17.90
2023-08-07T13:35:34.240Z,17.90
2023-08-07T13:38:01.217Z,17.90
2023-08-07T13:40:27.896Z,17.90
2023-08-07T13:42:54.681Z,17.70
2023-08-07T13:45:21.541Z,17.60
2023-08-07T13:47:48.567Z,17.70
2023-08-07T13:50:16.001Z,17.80
2023-08-07T13:52:42.756Z,18.00
2023-08-07T13:55:10.582Z,18.20
2023-08-07T13:57:37.594Z,18.20
2023-08-07T14:00:05.787Z,18.10
2023-08-07T14:02:35.677Z,17.90
2023-08-07T14:05:02.470Z,17.80
2023-08-07T14:07:29.157Z,17.70
2023-08-07T14:09:55.850Z,17.60
2023-08-07T14:12:22.493Z,17.60
2023-08-07T14:14:49.173Z,17.70
2023-08-07T14:17:15.947Z,17.90
2023-08-07T14:19:42.605Z,18.40
2023-08-07T14:22:09.349Z,18.30
2023-08-07T14:24:36.047Z,18.00
2023-08-07T14:27:02.762Z,17.90
2023-08-07T14:29:29.480Z,17.80
2023-08-07T14:31:56.135Z,17.80
2023-08-07T14:34:22.855Z,17.80
2023-08-07T14:36:50.110Z,17.90
2023-08-07T14:39:16.845Z,17.80
2023-08-07T14:41:43.489Z,17.70
2023-08-07T14:44:10.149Z,18.00
2023-08-07T14:46:36.980Z,18.30
2023-08-07T14:49:03.882Z,18.40
2023-08-07T14:51:30.532Z,18.50
2023-08-07T14:53:57.929Z,18.30
2023-08-07T14:56:24.803Z,18.10
2023-08-07T14:58:51.466Z,17.90
2023-08-07T15:01:18.235Z,17.80
2023-08-07T15:03:44.919Z,17.40
2023-08-07T15:06:11.612Z,16.90
2023-08-07T15:08:38.263Z,16.50
2023-08-07T15:11:05.129Z,16.30
2023-08-07T15:13:32.054Z,16.10
2023-08-07T15:15:58.864Z,16.00
2023-08-07T15:18:25.574Z,16.10
2023-08-07T15:20:52.303Z,15.80
2023-08-07T15:23:18.984Z,15.70
2023-08-07T15:25:45.659Z,15.70
2023-08-07T15:28:12.347Z,15.80
2023-08-07T15:30:39.009Z,16.10
2023-08-07T15:33:06.686Z,16.30
2023-08-07T15:35:33.580Z,16.70
2023-08-07T15:38:01.607Z,16.50
2023-08-07T15:40:29.041Z,16.40
2023-08-07T15:42:55.805Z,16.30
2023-08-07T15:45:22.699Z,16.10
2023-08-07T15:47:49.534Z,15.60
2023-08-07T15:50:16.463Z,15.40
2023-08-07T15:52:43.224Z,15.10
2023-08-07T15:55:09.943Z,14.90
2023-08-07T15:57:36.666Z,14.90
2023-08-07T16:00:04.239Z,14.90
2023-08-07T16:02:30.918Z,14.90
2023-08-07T16:04:57.595Z,15.00
2023-08-07T16:07:24.303Z,15.00
2023-08-07T16:09:51.099Z,15.00
2023-08-07T16:12:18.522Z,15.00
2023-08-07T16:14:45.392Z,15.10
2023-08-07T16:17:12.073Z,15.20
2023-08-07T16:19:38.793Z,15.20
2023-08-07T16:22:05.902Z,15.30
2023-08-07T16:24:33.765Z,16.30
2023-08-07T16:27:01.134Z,16.40
2023-08-07T16:29:28.093Z,16.00
2023-08-07T16:31:56.225Z,15.90
2023-08-07T16:34:23.962Z,16.10
2023-08-07T16:36:50.639Z,16.50
2023-08-07T16:39:17.296Z,16.60
2023-08-07T16:41:46.618Z,16.70
2023-08-07T16:44:13.474Z,16.70
2023-08-07T16:46:40.127Z,17.50
2023-08-07T16:49:06.815Z,17.50
2023-08-07T16:51:33.702Z,17.20
2023-08-07T16:54:01.527Z,16.90
2023-08-07T16:56:28.659Z,16.80
2023-08-07T16:58:55.343Z,16.80
2023-08-07T17:01:23.139Z,16.80
2023-08-07T17:03:49.881Z,16.90
2023-08-07T17:06:16.605Z,16.90
2023-08-07T17:08:43.312Z,17.00
2023-08-07T17:11:10.000Z,17.00
2023-08-07T17:13:36.921Z,15.80
2023-08-07T17:16:04.665Z,16.70
2023-08-07T17:18:31.693Z,16.70
2023-08-07T17:20:58.413Z,16.60
2023-08-07T17:23:25.217Z,16.60
2023-08-07T17:25:51.932Z,16.60
2023-08-07T17:28:18.863Z,16.60
2023-08-07T17:30:45.641Z,16.60
2023-08-07T17:33:12.356Z,16.60
2023-08-07T17:35:39.073Z,16.60
2023-08-07T17:38:05.787Z,16.50
2023-08-07T17:40:32.492Z,16.40
2023-08-07T17:42:59.159Z,16.30
2023-08-07T17:45:26.081Z,16.00
2023-08-07T17:47:52.767Z,15.80
2023-08-07T17:50:19.540Z,15.70
2023-08-07T17:52:46.319Z,15.60
2023-08-07T17:55:14.359Z,15.60
2023-08-07T17:57:41.159Z,15.60
2023-08-07T18:00:08.755Z,15.60
2023-08-07T18:02:35.719Z,15.40
2023-08-07T18:05:03.417Z,15.20
2023-08-07T18:07:31.464Z,15.10
2023-08-07T18:09:58.354Z,15.00
2023-08-07T18:12:25.369Z,15.00
2023-08-07T18:14:52.226Z,15.00
2023-08-07T18:17:18.877Z,15.00
2023-08-07T18:19:45.610Z,15.10
2023-08-07T18:22:12.278Z,15.00
2023-08-07T18:24:38.968Z,15.10
2023-08-07T18:27:05.802Z,15.10
2023-08-07T18:29:32.560Z,15.10
2023-08-07T18:32:00.056Z,14.90
2023-08-07T18:34:27.060Z,14.70
2023-08-07T18:36:54.023Z,14.60
2023-08-07T18:39:20.780Z,14.50
2023-08-07T18:41:47.503Z,14.50
2023-08-07T18:44:14.281Z,14.50
2023-08-07T18:46:43.071Z,14.40
2023-08-07T18:49:10.519Z,14.50
2023-08-07T18:51:37.320Z,14.40
2023-08-07T18:54:05.992Z,14.50
2023-08-07T18:56:33.029Z,14.50
2023-08-07T18:58:59.822Z,14.50
2023-08-07T19:01:26.495Z,14.50
2023-08-07T19:03:53.194Z,14.60
2023-08-07T19:06:19.860Z,14.60
2023-08-07T19:08:46.592Z,14.60
2023-08-07T19:11:13.470Z,14.70
2023-08-07T19:13:40.145Z,14.70
2023-08-07T19:16:07.373Z,14.80
2023-08-07T19:18:34.393Z,14.80
2023-08-07T19:21:01.851Z,14.80
2023-08-07T19:23:32.758Z,14.90
2023-08-07T19:26:01.181Z,14.80
2023-08-07T19:28:28.540Z,14.90
2023-08-07T19:31:05.699Z,14.80
2023-08-07T19:33:34.671Z,14.80
2023-08-07T19:36:01.676Z,14.80
2023-08-07T19:38:28.538Z,14.90
2023-08-07T19:40:55.234Z,14.90
2023-08-07T19:43:22.778Z,13.60
2023-08-07T19:45:49.459Z,14.90
2023-08-07T19:48:16.155Z,14.90
2023-08-07T19:50:42.930Z,14.90
2023-08-07T19:53:09.589Z,14.90
2023-08-07T19:55:36.278Z,14.90
2023-08-07T19:58:05.036Z,14.90
2023-08-07T20:00:31.811Z,14.90
2023-08-07T20:02:58.585Z,15.00
2023-08-07T20:05:25.551Z,15.00
2023-08-07T20:07:52.388Z,14.90
2023-08-07T20:10:24.537Z,14.80
2023-08-07T20:12:52.207Z,14.80
2023-08-07T20:15:19.666Z,14.70
2023-08-07T20:17:49.887Z,14.70
2023-08-07T20:20:21.061Z,14.70
2023-08-07T20:22:48.456Z,14.70
2023-08-07T20:25:15.369Z,14.70
2023-08-07T20:27:42.155Z,14.70
2023-08-07T20:30:09.139Z,14.70
2023-08-07T20:32:36.095Z,14.70
2023-08-07T20:35:04.119Z,14.70
2023-08-07T20:37:30.816Z,14.60
2023-08-07T20:39:57.610Z,14.70
2023-08-07T20:42:24.264Z,14.70
2023-08-07T20:44:51.017Z,14.70
2023-08-07T20:47:17.698Z,14.70
2023-08-07T20:49:44.395Z,14.70
2023-08-07T20:52:11.068Z,14.80
2023-08-07T20:54:37.946Z,14.70
2023-08-07T20:57:05.565Z,14.70
2023-08-07T20:59:32.314Z,14.70
2023-08-07T21:01:59.498Z,14.70
2023-08-07T21:04:26.941Z,14.70
2023-08-07T21:06:54.098Z,14.70
2023-08-07T21:09:21.277Z,14.70
2023-08-07T21:11:48.064Z,14.70
2023-08-07T21:14:14.910Z,14.70
2023-08-07T21:16:44.795Z,14.70
2023-08-07T21:19:13.010Z,14.70
2023-08-07T21:21:39.904Z,14.80
2023-08-07T21:24:12.311Z,14.80
2023-08-07T21:26:40.540Z,14.80
2023-08-07T21:29:07.557Z,14.80
2023-08-07T21:31:34.252Z,14.80
2023-08-07T21:34:01.008Z,14.80
2023-08-07T21:36:27.806Z,14.80
2023-08-07T21:38:54.614Z,14.90
2023-08-07T21:41:21.266Z,14.80
2023-08-07T21:43:47.991Z,14.80
2023-08-07T21:46:14.732Z,14.70
2023-08-07T21:48:41.520Z,14.80
2023-08-07T21:51:08.265Z,14.80
2023-08-07T21:53:34.954Z,14.80
2023-08-07T21:56:01.660Z,14.70
2023-08-07T21:58:28.413Z,14.70
2023-08-07T22:00:55.085Z,14.70
2023-08-07T22:03:21.888Z,14.70
2023-08-07T22:05:48.660Z,14.70
2023-08-07T22:08:15.422Z,14.80
2023-08-07T22:10:42.139Z,14.70
2023-08-07T22:13:08.791Z,14.70
2023-08-07T22:15:35.568Z,14.60
2023-08-07T22:18:02.268Z,14.60
2023-08-07T22:20:28.994Z,14.60
2023-08-07T22:22:55.692Z,14.50
2023-08-07T22:25:22.473Z,14.50
2023-08-07T22:27:49.189Z,14.60
2023-08-07T22:30:16.003Z,14.60
2023-08-07T22:32:43.597Z,14.60
2023-08-07T22:35:10.441Z,14.60
2023-08-07T22:37:37.194Z,14.70
2023-08-07T22:40:04.667Z,14.60
2023-08-07T22:42:31.346Z,14.60
2023-08-07T22:44:58.061Z,14.60
2023-08-07T22:47:24.774Z,14.60
2023-08-07T22:49:51.556Z,14.60
2023-08-07T22:52:18.273Z,14.60
2023-08-07T22:54:45.005Z,14.60
2023-08-07T22:57:11.699Z,14.60
2023-08-07T22:59:38.366Z,14.60
2023-08-07T23:02:05.276Z,14.60
2023-08-07T23:04:31.954Z,14.60
2023-08-07T23:06:58.634Z,14.60
2023-08-07T23:09:25.332Z,14.60
2023-08-07T23:11:52.061Z,14.50
2023-08-07T23:14:19.063Z,14.40
2023-08-07T23:16:45.823Z,14.40
2023-08-07T23:19:12.584Z,14.30
2023-08-07T23:21:39.250Z,14.30
2023-08-07T23:24:06.999Z,14.30
2023-08-07T23:26:34.229Z,14.20
2023-08-07T23:29:01.471Z,14.10
2023-08-07T23:31:31.194Z,14.10
2023-08-07T23:33:57.980Z,14.10
2023-08-07T23:36:24.711Z,14.10
2023-08-07T23:38:51.632Z,14.10
2023-08-07T23:41:18.639Z,14.80
2023-08-07T23:43:45.390Z,14.00
2023-08-07T23:46:12.377Z,14.00
2023-08-07T23:48:39.954Z,14.00
2023-08-07T23:51:06.672Z,14.00
2023-08-07T23:53:33.470Z,14.00
2023-08-07T23:56:00.241Z,14.10
2023-08-07T23:58:26.895Z,14.10
